createdAt,value
2023-03-28T00:01:46.622Z,101309.66
2023-03-28T00:04:14.503Z,101323.56
2023-03-28T00:06:45.740Z,101325.88
2023-03-28T00:09:13.626Z,101334.53
2023-03-28T00:11:41.490Z,101337.00
2023-03-28T00:14:08.896Z,101337.22
2023-03-28T00:16:38.282Z,101347.22
2023-03-28T00:19:07.507Z,101339.22
2023-03-28T00:21:36.706Z,101344.97
2023-03-28T00:24:06.832Z,101347.25
2023-03-28T00:26:35.884Z,101347.72
2023-03-28T00:29:07.150Z,101347.72
2023-03-28T00:31:41.747Z,101341.97
2023-03-28T00:34:10.006Z,101344.06
2023-03-28T00:36:39.860Z,101354.47
2023-03-28T00:39:07.432Z,101356.41
2023-03-28T00:41:35.691Z,101361.72
2023-03-28T00:44:17.303Z,101365.91
2023-03-28T00:46:45.557Z,101365.28
2023-03-28T00:49:15.193Z,101372.81
2023-03-28T00:51:45.785Z,101383.59
2023-03-28T00:54:15.075Z,101390.75
2023-03-28T00:56:43.922Z,101387.31
2023-03-28T00:59:14.267Z,101387.03
2023-03-28T01:01:42.321Z,101394.91
2023-03-28T01:04:10.233Z,101388.28
2023-03-28T01:06:40.607Z,101390.75
2023-03-28T01:09:08.090Z,101395.00
2023-03-28T01:11:35.767Z,101401.34
2023-03-28T01:14:04.337Z,101408.59
2023-03-28T01:16:32.620Z,101411.84
2023-03-28T01:19:02.316Z,101412.72
2023-03-28T01:21:35.014Z,101425.06
2023-03-28T01:24:24.027Z,101420.88
2023-03-28T01:27:15.089Z,101431.69
2023-03-28T01:29:49.178Z,101429.75
2023-03-28T01:32:34.503Z,101438.50
2023-03-28T01:35:26.414Z,101440.88
2023-03-28T01:38:12.209Z,101445.28
2023-03-28T01:41:11.625Z,101448.63
2023-03-28T01:44:00.384Z,101452.59
2023-03-28T01:46:32.584Z,101455.38
2023-03-28T01:49:31.136Z,101461.34
2023-03-28T01:52:00.522Z,101455.88
2023-03-28T01:54:43.534Z,101460.38
2023-03-28T01:57:22.107Z,101457.97
2023-03-28T01:59:59.635Z,101462.50
2023-03-28T02:02:30.143Z,101456.09
2023-03-28T02:04:57.424Z,101455.03
2023-03-28T02:07:29.122Z,101459.88
2023-03-28T02:09:59.756Z,101456.56
2023-03-28T02:12:28.760Z,101468.09
2023-03-28T02:14:56.701Z,101462.09
2023-03-28T02:17:24.616Z,101470.75
2023-03-28T02:19:59.523Z,101475.06
2023-03-28T02:22:34.151Z,101467.09
2023-03-28T02:25:02.331Z,101467.78
2023-03-28T02:27:30.779Z,101471.38
2023-03-28T02:29:58.624Z,101464.13
2023-03-28T02:32:26.529Z,101475.34
2023-03-28T02:34:53.636Z,101473.25
2023-03-28T02:37:54.886Z,101468.50
2023-03-28T02:40:53.098Z,101472.72
2023-03-28T02:43:35.504Z,101475.22
2023-03-28T02:46:05.214Z,101471.56
2023-03-28T02:49:08.487Z,101478.63
2023-03-28T02:52:04.946Z,101486.81
2023-03-28T02:54:36.474Z,101484.41
2023-03-28T02:57:27.430Z,101490.31
2023-03-28T03:00:20.384Z,101488.56
2023-03-28T03:02:51.856Z,101485.31
2023-03-28T03:05:23.024Z,101483.63
2023-03-28T03:07:50.000Z,101493.44
2023-03-28T03:10:18.392Z,101491.78
2023-03-28T03:12:46.000Z,101490.34
2023-03-28T03:15:18.961Z,101492.09
2023-03-28T03:17:47.247Z,101490.03
2023-03-28T03:20:14.922Z,101497.00
2023-03-28T03:22:43.016Z,101501.31
2023-03-28T03:25:14.371Z,101500.53
2023-03-28T03:27:42.592Z,101505.81
2023-03-28T03:30:11.791Z,101513.56
2023-03-28T03:32:44.359Z,101521.69
2023-03-28T03:35:12.101Z,101515.03
2023-03-28T03:37:40.166Z,101520.56
2023-03-28T03:40:10.965Z,101523.91
2023-03-28T03:42:38.905Z,101517.25
2023-03-28T03:45:10.012Z,101524.31
2023-03-28T03:47:38.111Z,101518.75
2023-03-28T03:50:09.380Z,101522.59
2023-03-28T03:52:37.699Z,101528.16
2023-03-28T03:55:06.463Z,101528.09
2023-03-28T03:57:34.178Z,101519.44
2023-03-28T04:00:06.661Z,101526.56
2023-03-28T04:02:35.430Z,101525.22
2023-03-28T04:05:03.407Z,101525.88
2023-03-28T04:07:32.960Z,101520.84
2023-03-28T04:10:00.709Z,101529.56
2023-03-28T04:12:28.209Z,101526.56
2023-03-28T04:14:55.274Z,101524.19
2023-03-28T04:17:23.535Z,101529.88
2023-03-28T04:19:51.758Z,101531.56
2023-03-28T04:22:19.569Z,101534.00
2023-03-28T04:24:49.922Z,101533.34
2023-03-28T04:27:17.709Z,101537.94
2023-03-28T04:29:45.739Z,101539.13
2023-03-28T04:32:13.839Z,101541.69
2023-03-28T04:34:41.787Z,101545.31
2023-03-28T04:37:09.751Z,101538.94
2023-03-28T04:39:37.707Z,101542.47
2023-03-28T04:42:06.542Z,101544.03
2023-03-28T04:44:33.648Z,101541.47
2023-03-28T04:47:01.155Z,101546.59
2023-03-28T04:49:29.440Z,101551.88
2023-03-28T04:51:57.655Z,101562.31
2023-03-28T04:54:25.643Z,101551.22
2023-03-28T04:56:53.373Z,101548.16
2023-03-28T04:59:21.537Z,101560.13
2023-03-28T05:01:49.692Z,101566.13
2023-03-28T05:04:20.183Z,101568.00
2023-03-28T05:06:48.653Z,101572.41
2023-03-28T05:09:17.014Z,101573.88
2023-03-28T05:11:45.354Z,101577.22
2023-03-28T05:14:13.231Z,101592.13
2023-03-28T05:16:44.118Z,101580.91
2023-03-28T05:19:11.881Z,101585.63
2023-03-28T05:21:40.831Z,101589.72
2023-03-28T05:24:10.135Z,101585.03
2023-03-28T05:26:37.989Z,101590.44
2023-03-28T05:29:06.555Z,101583.88
2023-03-28T05:31:34.849Z,101585.94
2023-03-28T05:34:02.586Z,101595.69
2023-03-28T05:36:30.284Z,101595.09
2023-03-28T05:38:58.117Z,101597.16
2023-03-28T05:41:25.926Z,101598.44
2023-03-28T05:43:53.891Z,101605.03
2023-03-28T05:46:21.808Z,101610.31
2023-03-28T05:48:49.932Z,101609.66
2023-03-28T05:51:17.657Z,101625.38
2023-03-28T05:53:45.711Z,101620.44
2023-03-28T05:56:18.280Z,101620.66
2023-03-28T05:58:46.130Z,101627.63
2023-03-28T06:01:18.165Z,101628.03
2023-03-28T06:03:46.679Z,101633.63
2023-03-28T06:06:15.698Z,101636.47
2023-03-28T06:08:43.702Z,101639.72
2023-03-28T06:11:11.878Z,101640.31
2023-03-28T06:13:42.982Z,101657.38
2023-03-28T06:16:11.055Z,101648.38
2023-03-28T06:18:39.143Z,101655.44
2023-03-28T06:21:08.428Z,101653.88
2023-03-28T06:23:36.288Z,101668.59
2023-03-28T06:26:05.185Z,101672.03
2023-03-28T06:28:33.270Z,101676.16
2023-03-28T06:31:01.174Z,101674.69
2023-03-28T06:33:29.325Z,101668.88
2023-03-28T06:35:57.328Z,101674.38
2023-03-28T06:38:25.387Z,101681.84
2023-03-28T06:40:53.582Z,101674.69
2023-03-28T06:43:21.707Z,101688.19
2023-03-28T06:45:49.773Z,101689.63
2023-03-28T06:48:17.939Z,101694.53
2023-03-28T06:50:53.105Z,101694.94
2023-03-28T06:53:21.104Z,101692.94
2023-03-28T06:56:13.146Z,101694.41
2023-03-28T06:58:40.768Z,101705.28
2023-03-28T07:01:08.644Z,101712.56
2023-03-28T07:03:36.794Z,101718.34
2023-03-28T07:06:07.936Z,101718.13
2023-03-28T07:08:36.162Z,101722.13
2023-03-28T07:11:04.986Z,101731.97
2023-03-28T07:13:32.773Z,101743.56
2023-03-28T07:16:10.924Z,101748.31
2023-03-28T07:18:38.585Z,101748.59
2023-03-28T07:21:30.653Z,101750.91
2023-03-28T07:23:58.177Z,101753.19
2023-03-28T07:26:27.944Z,101758.84
2023-03-28T07:28:56.931Z,101763.44
2023-03-28T07:31:25.725Z,101772.38
2023-03-28T07:33:54.024Z,101769.28
2023-03-28T07:36:22.559Z,101772.31
2023-03-28T07:38:50.390Z,101781.59
2023-03-28T07:41:18.292Z,101779.56
2023-03-28T07:43:46.369Z,101781.13
2023-03-28T07:46:14.529Z,101783.28
2023-03-28T07:48:42.397Z,101788.03
2023-03-28T07:51:10.946Z,101785.81
2023-03-28T07:53:38.481Z,101786.72
2023-03-28T07:56:10.815Z,101797.69
2023-03-28T07:58:39.749Z,101796.25
2023-03-28T08:01:28.222Z,101792.66
2023-03-28T08:03:55.977Z,101800.97
2023-03-28T08:06:32.040Z,101806.75
2023-03-28T08:09:02.832Z,101810.75
2023-03-28T08:11:30.331Z,101816.31
2023-03-28T08:13:57.795Z,101819.41
2023-03-28T08:16:25.382Z,101818.03
2023-03-28T08:19:09.164Z,101821.81
2023-03-28T08:21:38.477Z,101823.19
2023-03-28T08:24:06.281Z,101825.41
2023-03-28T08:26:34.380Z,101828.38
2023-03-28T08:29:02.848Z,101839.16
2023-03-28T08:31:30.437Z,101829.19
2023-03-28T08:33:57.819Z,101834.72
2023-03-28T08:36:27.325Z,101835.72
2023-03-28T08:39:00.501Z,101831.78
2023-03-28T08:41:30.462Z,101830.56
2023-03-28T08:44:12.593Z,101822.63
2023-03-28T08:46:40.717Z,101829.97
2023-03-28T08:49:10.465Z,101833.13
2023-03-28T08:51:40.481Z,101831.03
2023-03-28T08:54:28.946Z,101834.84
2023-03-28T08:56:56.714Z,101831.88
2023-03-28T08:59:41.106Z,101829.13
2023-03-28T09:02:21.791Z,101829.13
2023-03-28T09:04:50.359Z,101829.94
2023-03-28T09:07:32.980Z,101827.25
2023-03-28T09:10:41.751Z,101818.09
2023-03-28T09:13:27.522Z,101825.69
2023-03-28T09:16:31.414Z,101819.22
2023-03-28T09:19:07.271Z,101819.56
2023-03-28T09:21:42.138Z,101820.69
2023-03-28T09:24:29.958Z,101823.69
2023-03-28T09:27:12.724Z,101814.59
2023-03-28T09:29:40.012Z,101825.69
2023-03-28T09:32:30.903Z,101824.28
2023-03-28T09:35:19.275Z,101826.41
2023-03-28T09:37:48.918Z,101823.88
2023-03-28T09:40:19.181Z,101826.16
2023-03-28T09:43:12.836Z,101828.31
2023-03-28T09:46:01.078Z,101833.81
2023-03-28T09:48:30.375Z,101835.22
2023-03-28T09:50:59.570Z,101840.41
2023-03-28T09:53:32.886Z,101839.22
2023-03-28T09:56:26.235Z,101835.22
2023-03-28T09:58:57.867Z,101830.00
2023-03-28T10:01:42.296Z,101839.69
2023-03-28T10:04:23.747Z,101832.97
2023-03-28T10:06:51.762Z,101837.75
2023-03-28T10:09:31.600Z,101837.34
2023-03-28T10:12:00.429Z,101835.78
2023-03-28T10:14:41.986Z,101844.38
2023-03-28T10:17:21.272Z,101832.41
2023-03-28T10:19:49.003Z,101834.50
2023-03-28T10:22:24.585Z,101825.81
2023-03-28T10:24:52.583Z,101826.09
2023-03-28T10:27:25.530Z,101829.09
2023-03-28T10:29:53.435Z,101825.81
2023-03-28T10:32:27.941Z,101829.63
2023-03-28T10:35:06.736Z,101824.50
2023-03-28T10:37:34.659Z,101834.47
2023-03-28T10:40:08.229Z,101830.41
2023-03-28T10:42:45.290Z,101821.91
2023-03-28T10:45:24.125Z,101830.81
2023-03-28T10:47:52.110Z,101832.84
2023-03-28T10:50:49.011Z,101833.16
2023-03-28T10:53:38.283Z,101825.16
2023-03-28T10:56:38.612Z,101817.88
2023-03-28T10:59:34.853Z,101825.09
2023-03-28T11:02:17.473Z,101808.38
2023-03-28T11:05:05.999Z,101815.91
2023-03-28T11:07:56.716Z,101811.00
2023-03-28T11:10:29.716Z,101814.13
2023-03-28T11:13:22.479Z,101799.00
2023-03-28T11:15:49.413Z,101803.69
2023-03-28T11:18:26.551Z,101807.75
2023-03-28T11:21:04.107Z,101797.53
2023-03-28T11:23:46.908Z,101806.59
2023-03-28T11:26:41.929Z,101801.53
2023-03-28T11:29:13.081Z,101795.63
2023-03-28T11:32:03.303Z,101799.09
2023-03-28T11:34:54.963Z,101797.56
2023-03-28T11:37:25.402Z,101791.00
2023-03-28T11:39:57.151Z,101787.00
2023-03-28T11:43:02.342Z,101783.44
2023-03-28T11:45:52.565Z,101788.22
2023-03-28T11:48:44.724Z,101779.16
2023-03-28T11:51:38.518Z,101782.47
2023-03-28T11:54:17.390Z,101775.72
2023-03-28T11:57:00.432Z,101774.00
2023-03-28T11:59:48.819Z,101768.22
2023-03-28T12:02:35.786Z,101778.28
2023-03-28T12:05:18.875Z,101778.31
2023-03-28T12:07:50.839Z,101774.09
2023-03-28T12:10:26.537Z,101774.41
2023-03-28T12:13:30.527Z,101755.97
2023-03-28T12:16:02.636Z,101763.56
2023-03-28T12:18:37.481Z,101754.81
2023-03-28T12:21:27.713Z,101764.97
2023-03-28T12:24:03.978Z,101754.47
2023-03-28T12:26:55.904Z,101747.16
2023-03-28T12:29:34.896Z,101746.63
2023-03-28T12:32:10.740Z,101744.72
2023-03-28T12:34:44.003Z,101737.66
2023-03-28T12:37:28.193Z,101735.31
2023-03-28T12:40:25.359Z,101732.94
2023-03-28T12:42:53.797Z,101731.13
2023-03-28T12:45:32.607Z,101732.22
2023-03-28T12:48:04.215Z,101738.22
2023-03-28T12:50:34.198Z,101733.00
2023-03-28T12:53:01.540Z,101729.47
2023-03-28T12:55:28.153Z,101731.16
2023-03-28T12:58:28.839Z,101727.75
2023-03-28T13:01:08.359Z,101720.72
2023-03-28T13:03:56.773Z,101719.25
2023-03-28T13:06:39.346Z,101708.72
2023-03-28T13:09:30.632Z,101714.84
2023-03-28T13:12:06.098Z,101713.84
2023-03-28T13:14:38.695Z,101714.63
2023-03-28T13:17:25.674Z,101719.06
2023-03-28T13:19:53.643Z,101699.78
2023-03-28T13:23:02.273Z,101712.88
2023-03-28T13:25:32.527Z,101717.28
2023-03-28T13:28:11.680Z,101706.28
2023-03-28T13:30:46.751Z,101709.88
2023-03-28T13:33:24.676Z,101705.47
2023-03-28T13:36:01.190Z,101715.09
2023-03-28T13:38:28.448Z,101704.72
2023-03-28T13:41:01.374Z,101704.00
2023-03-28T13:43:43.825Z,101709.38
2023-03-28T13:46:13.860Z,101700.66
2023-03-28T13:48:46.918Z,101701.94
2023-03-28T13:51:17.595Z,101703.78
2023-03-28T13:53:48.926Z,101697.34
2023-03-28T13:56:30.331Z,101689.41
2023-03-28T13:58:59.089Z,101700.41
2023-03-28T14:01:33.552Z,101688.66
2023-03-28T14:04:01.625Z,101690.75
2023-03-28T14:06:30.432Z,101682.78
2023-03-28T14:09:01.156Z,101686.13
2023-03-28T14:11:31.804Z,101680.50
2023-03-28T14:14:40.492Z,101674.84
2023-03-28T14:17:11.530Z,101679.44
2023-03-28T14:20:02.092Z,101675.38
2023-03-28T14:22:29.968Z,101670.53
2023-03-28T14:24:59.873Z,101665.81
2023-03-28T14:27:28.543Z,101668.09
2023-03-28T14:29:57.646Z,101674.41
2023-03-28T14:33:01.920Z,101665.97
2023-03-28T14:35:31.019Z,101669.81
2023-03-28T14:37:59.628Z,101667.19
2023-03-28T14:40:45.201Z,101664.06
2023-03-28T14:43:15.071Z,101659.00
2023-03-28T14:45:50.894Z,101661.13
2023-03-28T14:48:26.662Z,101656.19
2023-03-28T14:50:54.209Z,101652.75
2023-03-28T14:53:29.423Z,101657.84
2023-03-28T14:56:03.452Z,101647.03
2023-03-28T14:58:32.483Z,101651.91
2023-03-28T15:01:01.316Z,101656.56
2023-03-28T15:03:39.166Z,101660.81
2023-03-28T15:06:07.073Z,101654.84
2023-03-28T15:08:37.857Z,101648.34
2023-03-28T15:11:13.792Z,101651.47
2023-03-28T15:13:44.788Z,101653.53
2023-03-28T15:16:17.744Z,101649.50
2023-03-28T15:18:47.142Z,101652.34
2023-03-28T15:21:14.044Z,101644.69
2023-03-28T15:24:10.356Z,101632.16
2023-03-28T15:26:39.186Z,101644.81
2023-03-28T15:29:07.003Z,101644.06
2023-03-28T15:31:34.646Z,101640.59
2023-03-28T15:34:02.640Z,101634.53
2023-03-28T15:36:32.693Z,101640.66
2023-03-28T15:39:02.372Z,101635.44
2023-03-28T15:41:47.756Z,101647.66
2023-03-28T15:44:54.821Z,101641.50
2023-03-28T15:47:24.970Z,101645.91
2023-03-28T15:49:51.960Z,101648.53
2023-03-28T15:52:20.985Z,101647.63
2023-03-28T15:54:54.185Z,101651.94
2023-03-28T15:57:22.108Z,101657.00
2023-03-28T15:59:51.359Z,101654.28
2023-03-28T16:02:24.535Z,101659.59
2023-03-28T16:05:02.396Z,101668.50
2023-03-28T16:08:11.153Z,101662.50
2023-03-28T16:10:39.030Z,101678.06
2023-03-28T16:13:07.420Z,101669.38
2023-03-28T16:15:35.610Z,101665.94
2023-03-28T16:18:03.809Z,101663.28
2023-03-28T16:20:34.047Z,101664.09
2023-03-28T16:23:02.319Z,101672.72
2023-03-28T16:25:29.479Z,101677.06
2023-03-28T16:27:57.869Z,101671.75
2023-03-28T16:30:43.050Z,101669.84
2023-03-28T16:33:10.696Z,101674.91
2023-03-28T16:35:37.686Z,101670.47
2023-03-28T16:38:05.928Z,101674.34
2023-03-28T16:40:34.380Z,101675.84
2023-03-28T16:43:02.435Z,101668.25
2023-03-28T16:45:30.812Z,101667.59
2023-03-28T16:47:58.881Z,101669.56
2023-03-28T16:50:27.214Z,101673.19
2023-03-28T16:52:55.223Z,101674.09
2023-03-28T16:55:23.868Z,101680.66
2023-03-28T16:57:52.194Z,101679.44
2023-03-28T17:00:21.230Z,101679.22
2023-03-28T17:02:49.702Z,101679.84
2023-03-28T17:05:19.002Z,101686.63
2023-03-28T17:07:46.702Z,101689.97
2023-03-28T17:10:14.810Z,101694.19
2023-03-28T17:12:42.959Z,101686.88
2023-03-28T17:15:12.172Z,101689.94
2023-03-28T17:17:40.064Z,101689.63
2023-03-28T17:20:11.911Z,101691.41
2023-03-28T17:22:39.616Z,101692.94
2023-03-28T17:25:10.064Z,101688.13
2023-03-28T17:27:38.049Z,101701.44
2023-03-28T17:30:09.619Z,101699.84
2023-03-28T17:32:37.850Z,101692.28
2023-03-28T17:35:06.825Z,101689.81
2023-03-28T17:37:34.990Z,101694.25
2023-03-28T17:40:04.045Z,101690.09
2023-03-28T17:42:31.660Z,101701.81
2023-03-28T17:44:59.258Z,101696.31
2023-03-28T17:50:02.374Z,101703.47
2023-03-28T17:52:30.160Z,101704.00
2023-03-28T17:54:58.930Z,101707.94
2023-03-28T17:57:26.655Z,101709.50
2023-03-28T17:59:54.726Z,101709.31
2023-03-28T18:02:22.807Z,101720.28
2023-03-28T18:04:53.770Z,101723.69
2023-03-28T18:07:21.846Z,101724.19
2023-03-28T18:09:49.942Z,101721.03
2023-03-28T18:12:17.559Z,101718.06
2023-03-28T18:14:46.192Z,101728.63
2023-03-28T18:17:13.754Z,101723.03
2023-03-28T18:19:41.730Z,101731.94
2023-03-28T18:22:09.798Z,101736.66
2023-03-28T18:24:38.020Z,101744.84
2023-03-28T18:27:05.841Z,101746.44
2023-03-28T18:29:33.395Z,101753.88
2023-03-28T18:32:01.499Z,101756.84
2023-03-28T18:34:30.092Z,101758.81
2023-03-28T18:37:00.098Z,101766.19
2023-03-28T18:39:29.881Z,101762.63
2023-03-28T18:41:57.924Z,101771.06
2023-03-28T18:44:25.888Z,101769.09
2023-03-28T18:46:55.428Z,101765.44
2023-03-28T18:49:29.069Z,101768.38
2023-03-28T18:52:04.258Z,101774.81
2023-03-28T18:54:33.400Z,101785.38
2023-03-28T18:57:05.016Z,101782.22
2023-03-28T18:59:33.010Z,101782.22
2023-03-28T19:02:01.039Z,101789.03
2023-03-28T19:04:29.327Z,101784.72
2023-03-28T19:06:57.632Z,101793.16
2023-03-28T19:09:26.354Z,101783.47
2023-03-28T19:11:55.627Z,101786.88
2023-03-28T19:14:26.284Z,101793.28
2023-03-28T19:16:54.790Z,101793.16
2023-03-28T19:19:23.288Z,101795.75
2023-03-28T19:21:51.937Z,101805.44
2023-03-28T19:24:21.349Z,101805.91
2023-03-28T19:26:49.773Z,101804.78
2023-03-28T19:29:16.934Z,101800.84
2023-03-28T19:31:44.157Z,101796.25
2023-03-28T19:34:18.403Z,101801.06
2023-03-28T19:36:46.239Z,101806.75
2023-03-28T19:39:14.035Z,101801.59
2023-03-28T19:41:41.807Z,101800.19
2023-03-28T19:44:10.128Z,101804.03
2023-03-28T19:46:38.850Z,101807.16
2023-03-28T19:49:06.998Z,101803.91
2023-03-28T19:51:33.871Z,101806.78
2023-03-28T19:54:03.920Z,101811.00
2023-03-28T19:56:31.718Z,101810.56
2023-03-28T19:59:00.480Z,101814.75
2023-03-28T20:01:28.746Z,101817.75
2023-03-28T20:03:56.748Z,101817.59
2023-03-28T20:06:24.951Z,101820.47
2023-03-28T20:08:53.959Z,101814.72
2023-03-28T20:11:22.175Z,101823.47
2023-03-28T20:13:50.287Z,101816.50
2023-03-28T20:16:18.482Z,101813.94
2023-03-28T20:18:48.157Z,101820.63
2023-03-28T20:21:22.027Z,101817.91
2023-03-28T20:23:59.109Z,101822.75
2023-03-28T20:26:27.816Z,101814.91
2023-03-28T20:28:56.981Z,101818.34
2023-03-28T20:31:25.138Z,101818.94
2023-03-28T20:34:04.003Z,101818.06
2023-03-28T20:36:51.114Z,101827.28
2023-03-28T20:39:23.330Z,101834.19
2023-03-28T20:41:55.187Z,101823.59
2023-03-28T20:44:23.699Z,101826.66
2023-03-28T20:46:51.991Z,101831.16
2023-03-28T20:49:21.412Z,101836.16
2023-03-28T20:51:52.656Z,101834.97
2023-03-28T20:54:21.896Z,101834.09
2023-03-28T20:56:50.010Z,101833.44
2023-03-28T20:59:17.831Z,101837.28
2023-03-28T21:01:47.920Z,101831.84
2023-03-28T21:04:17.003Z,101836.84
2023-03-28T21:06:46.078Z,101829.78
2023-03-28T21:09:18.384Z,101833.16
2023-03-28T21:11:45.805Z,101833.16
2023-03-28T21:14:13.987Z,101827.88
2023-03-28T21:16:41.823Z,101833.34
2023-03-28T21:19:09.383Z,101831.34
2023-03-28T21:21:37.098Z,101835.31
2023-03-28T21:24:05.544Z,101841.47
2023-03-28T21:26:33.559Z,101857.53
2023-03-28T21:29:01.650Z,101861.50
2023-03-28T21:31:30.324Z,101858.84
2023-03-28T21:33:57.991Z,101857.97
2023-03-28T21:36:24.780Z,101854.44
2023-03-28T21:38:52.422Z,101841.16
2023-03-28T21:41:20.216Z,101848.00
2023-03-28T21:43:48.357Z,101845.13
2023-03-28T21:46:18.649Z,101842.22
2023-03-28T21:48:48.250Z,101848.09
2023-03-28T21:51:16.560Z,101833.22
2023-03-28T21:53:44.705Z,101840.22
2023-03-28T21:56:14.184Z,101841.91
2023-03-28T21:58:45.840Z,101850.41
2023-03-28T22:01:13.989Z,101838.47
2023-03-28T22:03:42.396Z,101846.16
2023-03-28T22:06:10.143Z,101853.78
2023-03-28T22:08:38.136Z,101840.69
2023-03-28T22:11:13.636Z,101844.56
2023-03-28T22:13:42.305Z,101847.97
2023-03-28T22:16:10.218Z,101857.09
2023-03-28T22:18:38.541Z,101841.13
2023-03-28T22:21:06.974Z,101849.59
2023-03-28T22:23:35.076Z,101856.34
2023-03-28T22:26:03.707Z,101865.59
2023-03-28T22:28:31.694Z,101856.00
2023-03-28T22:30:59.448Z,101866.03
2023-03-28T22:33:33.194Z,101860.47
2023-03-28T22:36:01.043Z,101859.59
2023-03-28T22:38:29.097Z,101850.75
2023-03-28T22:40:57.073Z,101845.59
2023-03-28T22:43:25.375Z,101850.75
2023-03-28T22:45:53.488Z,101846.97
2023-03-28T22:48:22.089Z,101846.81
2023-03-28T22:50:50.722Z,101846.63
2023-03-28T22:53:22.697Z,101854.22
2023-03-28T22:55:50.578Z,101852.63
2023-03-28T22:58:18.845Z,101859.63
2023-03-28T23:00:46.653Z,101856.16
2023-03-28T23:03:14.754Z,101847.97
2023-03-28T23:05:42.298Z,101849.72
2023-03-28T23:08:10.472Z,101850.34
2023-03-28T23:10:38.608Z,101851.31
2023-03-28T23:13:06.898Z,101858.03
2023-03-28T23:15:34.981Z,101861.78
2023-03-28T23:18:02.899Z,101852.91
2023-03-28T23:20:31.110Z,101861.25
2023-03-28T23:22:58.876Z,101870.53
2023-03-28T23:25:28.591Z,101861.97
2023-03-28T23:27:59.668Z,101861.41
2023-03-28T23:30:27.994Z,101853.13
2023-03-28T23:32:55.942Z,101859.84
2023-03-28T23:35:23.755Z,101859.84
2023-03-28T23:37:53.245Z,101857.91
2023-03-28T23:40:21.665Z,101868.00
2023-03-28T23:42:49.799Z,101868.78
2023-03-28T23:45:18.641Z,101872.94
2023-03-28T23:47:46.178Z,101862.69
2023-03-28T23:50:14.477Z,101869.22
2023-03-28T23:52:42.392Z,101861.25
2023-03-28T23:55:10.113Z,101863.38
2023-03-28T23:57:37.762Z,101873.97
